sensor_id;sensor_type;location;lat;lon;timestamp;pressure;altitude;pressure_sealevel;temperature;humidity
4346;BME280;2186;49.866;7.986;2023-03-22T00:01:44;100014.94;;;7.96;100.00
4346;BME280;2186;49.866;7.986;2023-03-22T00:04:11;100014.25;;;7.87;100.00
4346;BME280;2186;49.866;7.986;2023-03-22T00:06:38;100019.09;;;7.66;100.00
4346;BME280;2186;49.866;7.986;2023-03-22T00:09:05;100019.09;;;7.68;100.00
4346;BME280;2186;49.866;7.986;2023-03-22T00:11:31;100016.72;;;7.53;100.00
4346;BME280;2186;49.866;7.986;2023-03-22T00:13:57;100018.66;;;7.46;100.00
4346;BME280;2186;49.866;7.986;2023-03-22T00:16:25;100024.75;;;7.50;100.00
4346;BME280;2186;49.866;7.986;2023-03-22T00:18:51;100014.91;;;7.56;100.00
4346;BME280;2186;49.866;7.986;2023-03-22T00:21:18;100012.19;;;7.59;100.00
4346;BME280;2186;49.866;7.986;2023-03-22T00:23:44;100005.28;;;7.52;100.00
4346;BME280;2186;49.866;7.986;2023-03-22T00:26:12;100012.34;;;7.52;100.00
4346;BME280;2186;49.866;7.986;2023-03-22T00:28:38;100013.31;;;7.48;100.00
4346;BME280;2186;49.866;7.986;2023-03-22T00:31:06;100015.94;;;7.49;100.00
4346;BME280;2186;49.866;7.986;2023-03-22T00:33:33;100012.03;;;7.67;100.00
4346;BME280;2186;49.866;7.986;2023-03-22T00:36:08;100007.91;;;7.54;100.00
4346;BME280;2186;49.866;7.986;2023-03-22T00:38:36;100008.97;;;7.45;100.00
4346;BME280;2186;49.866;7.986;2023-03-22T00:41:17;100010.03;;;7.36;100.00
4346;BME280;2186;49.866;7.986;2023-03-22T00:43:45;100000.28;;;7.38;100.00
4346;BME280;2186;49.866;7.986;2023-03-22T00:46:12;99997.19;;;7.18;100.00
4346;BME280;2186;49.866;7.986;2023-03-22T00:48:39;99997.25;;;7.15;100.00
4346;BME280;2186;49.866;7.986;2023-03-22T00:51:06;99987.50;;;7.17;100.00
4346;BME280;2186;49.866;7.986;2023-03-22T00:53:33;99984.13;;;7.09;100.00
4346;BME280;2186;49.866;7.986;2023-03-22T00:56:04;99978.72;;;7.17;100.00
4346;BME280;2186;49.866;7.986;2023-03-22T00:58:31;99980.31;;;7.24;100.00
4346;BME280;2186;49.866;7.986;2023-03-22T01:00:57;99979.19;;;7.35;100.00
4346;BME280;2186;49.866;7.986;2023-03-22T01:03:24;99964.25;;;7.34;100.00
4346;BME280;2186;49.866;7.986;2023-03-22T01:05:52;99969.41;;;7.39;100.00
4346;BME280;2186;49.866;7.986;2023-03-22T01:08:22;99976.63;;;7.74;100.00
4346;BME280;2186;49.866;7.986;2023-03-22T01:10:49;99977.06;;;7.53;100.00
4346;BME280;2186;49.866;7.986;2023-03-22T01:13:15;99968.44;;;7.45;100.00
4346;BME280;2186;49.866;7.986;2023-03-22T01:15:43;99970.69;;;7.21;100.00
4346;BME280;2186;49.866;7.986;2023-03-22T01:18:10;99974.28;;;7.17;100.00
4346;BME280;2186;49.866;7.986;2023-03-22T01:20:36;99965.47;;;7.18;100.00
4346;BME280;2186;49.866;7.986;2023-03-22T01:23:03;99973.47;;;7.15;100.00
4346;BME280;2186;49.866;7.986;2023-03-22T01:25:29;99974.38;;;7.12;100.00
4346;BME280;2186;49.866;7.986;2023-03-22T01:27:56;99961.38;;;7.02;100.00
4346;BME280;2186;49.866;7.986;2023-03-22T01:30:23;99966.88;;;6.91;100.00
4346;BME280;2186;49.866;7.986;2023-03-22T01:32:49;99963.47;;;6.83;100.00
4346;BME280;2186;49.866;7.986;2023-03-22T01:35:16;99959.97;;;6.82;100.00
4346;BME280;2186;49.866;7.986;2023-03-22T01:37:43;99958.94;;;6.91;100.00
4346;BME280;2186;49.866;7.986;2023-03-22T01:40:11;99957.03;;;6.98;100.00
4346;BME280;2186;49.866;7.986;2023-03-22T01:42:38;99953.63;;;6.93;100.00
4346;BME280;2186;49.866;7.986;2023-03-22T01:47:47;99951.38;;;6.73;100.00
4346;BME280;2186;49.866;7.986;2023-03-22T01:50:16;99948.09;;;6.60;100.00
4346;BME280;2186;49.866;7.986;2023-03-22T01:52:43;99951.38;;;6.71;100.00
4346;BME280;2186;49.866;7.986;2023-03-22T01:55:10;99940.06;;;6.65;100.00
4346;BME280;2186;49.866;7.986;2023-03-22T01:57:39;99937.56;;;6.56;100.00
4346;BME280;2186;49.866;7.986;2023-03-22T02:00:10;99939.50;;;6.47;100.00
4346;BME280;2186;49.866;7.986;2023-03-22T02:02:42;99929.75;;;6.51;100.00
4346;BME280;2186;49.866;7.986;2023-03-22T02:05:09;99928.50;;;6.70;100.00
4346;BME280;2186;49.866;7.986;2023-03-22T02:07:38;99929.91;;;6.42;100.00
4346;BME280;2186;49.866;7.986;2023-03-22T02:10:14;99940.66;;;6.30;100.00
4346;BME280;2186;49.866;7.986;2023-03-22T02:15:40;99931.53;;;6.50;100.00
4346;BME280;2186;49.866;7.986;2023-03-22T02:30:02;99920.84;;;6.58;100.00
4346;BME280;2186;49.866;7.986;2023-03-22T02:35:23;99935.88;;;6.53;100.00
4346;BME280;2186;49.866;7.986;2023-03-22T02:46:33;99918.13;;;6.61;100.00
4346;BME280;2186;49.866;7.986;2023-03-22T02:49:32;99920.34;;;6.36;100.00
4346;BME280;2186;49.866;7.986;2023-03-22T02:52:17;99916.19;;;6.21;100.00
4346;BME280;2186;49.866;7.986;2023-03-22T02:55:02;99913.88;;;6.03;100.00
4346;BME280;2186;49.866;7.986;2023-03-22T03:00:27;99925.50;;;5.90;100.00
4346;BME280;2186;49.866;7.986;2023-03-22T03:03:00;99912.28;;;5.88;100.00
4346;BME280;2186;49.866;7.986;2023-03-22T03:05:42;99922.84;;;5.91;100.00
4346;BME280;2186;49.866;7.986;2023-03-22T03:08:11;99921.03;;;5.95;100.00
4346;BME280;2186;49.866;7.986;2023-03-22T03:10:40;99917.34;;;6.05;100.00
4346;BME280;2186;49.866;7.986;2023-03-22T03:13:11;99917.78;;;5.75;100.00
4346;BME280;2186;49.866;7.986;2023-03-22T03:15:39;99922.28;;;5.68;100.00
4346;BME280;2186;49.866;7.986;2023-03-22T03:18:22;99903.13;;;5.55;100.00
4346;BME280;2186;49.866;7.986;2023-03-22T03:20:59;99911.00;;;5.57;100.00
4346;BME280;2186;49.866;7.986;2023-03-22T03:23:33;99907.72;;;5.43;100.00
4346;BME280;2186;49.866;7.986;2023-03-22T03:31:40;99895.00;;;5.71;100.00
4346;BME280;2186;49.866;7.986;2023-03-22T03:34:26;99896.94;;;5.58;100.00
4346;BME280;2186;49.866;7.986;2023-03-22T03:37:01;99893.53;;;5.51;100.00
4346;BME280;2186;49.866;7.986;2023-03-22T03:39:31;99891.84;;;5.46;100.00
4346;BME280;2186;49.866;7.986;2023-03-22T03:42:01;99887.53;;;5.40;100.00
4346;BME280;2186;49.866;7.986;2023-03-22T03:44:29;99887.63;;;5.32;100.00
4346;BME280;2186;49.866;7.986;2023-03-22T03:46:57;99882.31;;;5.37;100.00
4346;BME280;2186;49.866;7.986;2023-03-22T03:49:24;99879.78;;;5.29;100.00
4346;BME280;2186;49.866;7.986;2023-03-22T03:51:54;99874.53;;;5.28;100.00
4346;BME280;2186;49.866;7.986;2023-03-22T03:54:21;99874.63;;;5.20;100.00
4346;BME280;2186;49.866;7.986;2023-03-22T03:56:48;99865.97;;;5.12;100.00
4346;BME280;2186;49.866;7.986;2023-03-22T03:59:15;99873.59;;;5.32;100.00
4346;BME280;2186;49.866;7.986;2023-03-22T04:01:43;99874.66;;;5.17;100.00
4346;BME280;2186;49.866;7.986;2023-03-22T04:04:19;99881.44;;;5.38;100.00
4346;BME280;2186;49.866;7.986;2023-03-22T04:06:57;99881.63;;;5.23;100.00
4346;BME280;2186;49.866;7.986;2023-03-22T04:09:26;99883.44;;;5.18;100.00
4346;BME280;2186;49.866;7.986;2023-03-22T04:11:54;99874.91;;;5.00;100.00
4346;BME280;2186;49.866;7.986;2023-03-22T04:14:21;99877.63;;;4.93;100.00
4346;BME280;2186;49.866;7.986;2023-03-22T04:16:48;99881.22;;;4.87;100.00
4346;BME280;2186;49.866;7.986;2023-03-22T04:19:15;99877.81;;;4.78;100.00
4346;BME280;2186;49.866;7.986;2023-03-22T04:21:42;99869.06;;;4.74;100.00
4346;BME280;2186;49.866;7.986;2023-03-22T04:24:09;99869.91;;;4.78;100.00
4346;BME280;2186;49.866;7.986;2023-03-22T04:26:35;99864.66;;;4.76;100.00
4346;BME280;2186;49.866;7.986;2023-03-22T04:29:02;99854.00;;;4.87;100.00
4346;BME280;2186;49.866;7.986;2023-03-22T04:31:30;99860.34;;;4.70;100.00
4346;BME280;2186;49.866;7.986;2023-03-22T04:33:57;99862.00;;;4.81;100.00
4346;BME280;2186;49.866;7.986;2023-03-22T04:36:25;99861.09;;;4.82;100.00
4346;BME280;2186;49.866;7.986;2023-03-22T04:38:56;99861.19;;;4.74;100.00
4346;BME280;2186;49.866;7.986;2023-03-22T04:41:23;99862.88;;;4.81;100.00
4346;BME280;2186;49.866;7.986;2023-03-22T04:43:50;99857.69;;;4.73;100.00
4346;BME280;2186;49.866;7.986;2023-03-22T04:46:16;99861.41;;;4.56;100.00
4346;BME280;2186;49.866;7.986;2023-03-22T04:48:43;99864.22;;;4.36;100.00
4346;BME280;2186;49.866;7.986;2023-03-22T04:51:10;99866.53;;;4.65;100.00
4346;BME280;2186;49.866;7.986;2023-03-22T04:53:37;99863.91;;;4.65;100.00
4346;BME280;2186;49.866;7.986;2023-03-22T04:56:08;99878.66;;;4.81;100.00
4346;BME280;2186;49.866;7.986;2023-03-22T04:58:37;99884.66;;;4.91;100.00
4346;BME280;2186;49.866;7.986;2023-03-22T05:01:06;99885.56;;;4.90;100.00
4346;BME280;2186;49.866;7.986;2023-03-22T05:03:34;99879.41;;;4.91;100.00
4346;BME280;2186;49.866;7.986;2023-03-22T05:06:04;99882.34;;;4.66;100.00
4346;BME280;2186;49.866;7.986;2023-03-22T05:08:32;99891.13;;;4.67;100.00
4346;BME280;2186;49.866;7.986;2023-03-22T05:11:09;99885.53;;;4.91;100.00
4346;BME280;2186;49.866;7.986;2023-03-22T05:13:36;99884.69;;;4.89;100.00
4346;BME280;2186;49.866;7.986;2023-03-22T05:16:04;99881.41;;;4.70;100.00
4346;BME280;2186;49.866;7.986;2023-03-22T05:18:32;99870.34;;;4.41;100.00
4346;BME280;2186;49.866;7.986;2023-03-22T05:20:59;99868.38;;;4.58;100.00
4346;BME280;2186;49.866;7.986;2023-03-22T05:23:26;99864.66;;;4.76;100.00
4346;BME280;2186;49.866;7.986;2023-03-22T05:25:52;99866.38;;;4.82;100.00
4346;BME280;2186;49.866;7.986;2023-03-22T05:28:20;99867.19;;;4.85;100.00
4346;BME280;2186;49.866;7.986;2023-03-22T05:30:47;99869.75;;;4.91;100.00
4346;BME280;2186;49.866;7.986;2023-03-22T05:33:14;99872.00;;;5.19;100.00
4346;BME280;2186;49.866;7.986;2023-03-22T05:35:42;99873.16;;;5.61;100.00
4346;BME280;2186;49.866;7.986;2023-03-22T05:38:09;99859.41;;;5.41;100.00
4346;BME280;2186;49.866;7.986;2023-03-22T05:40:36;99867.09;;;5.56;100.00
4346;BME280;2186;49.866;7.986;2023-03-22T05:43:03;99866.56;;;5.31;100.00
4346;BME280;2186;49.866;7.986;2023-03-22T05:45:29;99855.47;;;5.11;100.00
4346;BME280;2186;49.866;7.986;2023-03-22T05:47:57;99846.91;;;4.92;100.00
4346;BME280;2186;49.866;7.986;2023-03-22T05:50:24;99848.09;;;5.34;100.00
4346;BME280;2186;49.866;7.986;2023-03-22T05:52:50;99839.50;;;5.20;100.00
4346;BME280;2186;49.866;7.986;2023-03-22T05:55:17;99835.97;;;5.24;100.00
4346;BME280;2186;49.866;7.986;2023-03-22T05:57:45;99848.22;;;5.25;100.00
4346;BME280;2186;49.866;7.986;2023-03-22T06:00:14;99854.53;;;5.72;100.00
4346;BME280;2186;49.866;7.986;2023-03-22T06:02:42;99853.78;;;5.65;100.00
4346;BME280;2186;49.866;7.986;2023-03-22T06:05:10;99858.94;;;5.71;100.00
4346;BME280;2186;49.866;7.986;2023-03-22T06:07:38;99855.34;;;5.78;100.00
4346;BME280;2186;49.866;7.986;2023-03-22T06:10:06;99853.38;;;5.88;100.00
4346;BME280;2186;49.866;7.986;2023-03-22T06:12:33;99857.59;;;6.01;100.00
4346;BME280;2186;49.866;7.986;2023-03-22T06:15:00;99860.03;;;6.13;100.00
4346;BME280;2186;49.866;7.986;2023-03-22T06:17:26;99865.34;;;6.12;100.00
4346;BME280;2186;49.866;7.986;2023-03-22T06:19:53;99870.34;;;6.27;100.00
4346;BME280;2186;49.866;7.986;2023-03-22T06:22:20;99876.59;;;6.23;100.00
4346;BME280;2186;49.866;7.986;2023-03-22T06:24:48;99877.47;;;6.22;100.00
4346;BME280;2186;49.866;7.986;2023-03-22T06:27:15;99878.66;;;6.53;100.00
4346;BME280;2186;49.866;7.986;2023-03-22T06:29:41;99880.38;;;6.54;100.00
4346;BME280;2186;49.866;7.986;2023-03-22T06:32:07;99880.72;;;6.38;100.00
4346;BME280;2186;49.866;7.986;2023-03-22T06:34:34;99886.00;;;6.38;100.00
4346;BME280;2186;49.866;7.986;2023-03-22T06:37:01;99889.38;;;6.46;100.00
4346;BME280;2186;49.866;7.986;2023-03-22T06:39:27;99884.06;;;6.47;100.00
4346;BME280;2186;49.866;7.986;2023-03-22T06:41:53;99886.50;;;6.58;100.00
4346;BME280;2186;49.866;7.986;2023-03-22T06:44:20;99882.19;;;6.52;100.00
4346;BME280;2186;49.866;7.986;2023-03-22T06:46:47;99882.59;;;6.77;100.00
4346;BME280;2186;49.866;7.986;2023-03-22T06:49:14;99884.28;;;6.81;100.00
4346;BME280;2186;49.866;7.986;2023-03-22T06:51:41;99889.06;;;7.06;100.00
4346;BME280;2186;49.866;7.986;2023-03-22T06:54:08;99889.50;;;7.26;100.00
4346;BME280;2186;49.866;7.986;2023-03-22T06:56:34;99896.66;;;7.21;100.00
4346;BME280;2186;49.866;7.986;2023-03-22T06:59:01;99904.94;;;7.46;100.00
4346;BME280;2186;49.866;7.986;2023-03-22T07:01:27;99891.22;;;7.29;100.00
4346;BME280;2186;49.866;7.986;2023-03-22T07:03:53;99886.16;;;7.58;100.00
4346;BME280;2186;49.866;7.986;2023-03-22T07:06:20;99892.31;;;7.59;100.00
4346;BME280;2186;49.866;7.986;2023-03-22T07:08:46;99888.59;;;7.66;100.00
4346;BME280;2186;49.866;7.986;2023-03-22T07:11:15;99889.34;;;7.72;100.00
4346;BME280;2186;49.866;7.986;2023-03-22T07:13:41;99876.28;;;8.02;100.00
4346;BME280;2186;49.866;7.986;2023-03-22T07:16:08;99869.00;;;8.12;100.00
4346;BME280;2186;49.866;7.986;2023-03-22T07:18:35;99865.03;;;8.28;100.00
4346;BME280;2186;49.866;7.986;2023-03-22T07:21:02;99878.03;;;8.39;100.00
4346;BME280;2186;49.866;7.986;2023-03-22T07:23:29;99873.34;;;8.48;100.00
4346;BME280;2186;49.866;7.986;2023-03-22T07:25:55;99866.56;;;8.71;100.00
4346;BME280;2186;49.866;7.986;2023-03-22T07:28:24;99867.81;;;8.88;100.00
4346;BME280;2186;49.866;7.986;2023-03-22T07:31:05;99860.06;;;9.12;100.00
4346;BME280;2186;49.866;7.986;2023-03-22T07:33:32;99868.78;;;9.15;100.00
4346;BME280;2186;49.866;7.986;2023-03-22T07:35:58;99870.50;;;9.47;100.00
4346;BME280;2186;49.866;7.986;2023-03-22T07:38:25;99869.75;;;9.42;100.00
4346;BME280;2186;49.866;7.986;2023-03-22T07:40:52;99871.44;;;9.45;100.00
4346;BME280;2186;49.866;7.986;2023-03-22T07:43:20;99875.44;;;9.60;100.00
4346;BME280;2186;49.866;7.986;2023-03-22T07:45:48;99874.72;;;9.53;100.00
4346;BME280;2186;49.866;7.986;2023-03-22T07:48:15;99873.91;;;9.51;100.00
4346;BME280;2186;49.866;7.986;2023-03-22T07:50:42;99872.91;;;9.55;100.00
4346;BME280;2186;49.866;7.986;2023-03-22T07:53:10;99867.69;;;10.06;100.00
4346;BME280;2186;49.866;7.986;2023-03-22T07:55:36;99870.25;;;10.09;100.00
4346;BME280;2186;49.866;7.986;2023-03-22T07:58:03;99868.34;;;10.13;100.00
4346;BME280;2186;49.866;7.986;2023-03-22T08:00:31;99863.91;;;10.14;100.00
4346;BME280;2186;49.866;7.986;2023-03-22T08:02:57;99864.75;;;10.16;100.00
4346;BME280;2186;49.866;7.986;2023-03-22T08:05:24;99866.19;;;10.26;100.00
4346;BME280;2186;49.866;7.986;2023-03-22T08:07:50;99864.31;;;10.29;100.00
4346;BME280;2186;49.866;7.986;2023-03-22T08:10:17;99866.50;;;10.43;100.00
4346;BME280;2186;49.866;7.986;2023-03-22T08:12:44;99862.31;;;10.61;100.00
4346;BME280;2186;49.866;7.986;2023-03-22T08:15:11;99853.97;;;10.72;100.00
4346;BME280;2186;49.866;7.986;2023-03-22T08:17:38;99860.78;;;10.79;100.00
4346;BME280;2186;49.866;7.986;2023-03-22T08:20:05;99859.13;;;11.00;100.00
4346;BME280;2186;49.866;7.986;2023-03-22T08:22:35;99855.19;;;11.10;100.00
4346;BME280;2186;49.866;7.986;2023-03-22T08:25:03;99848.59;;;11.20;100.00
4346;BME280;2186;49.866;7.986;2023-03-22T08:27:30;99848.19;;;11.07;100.00
4346;BME280;2186;49.866;7.986;2023-03-22T08:29:56;99835.56;;;11.36;100.00
4346;BME280;2186;49.866;7.986;2023-03-22T08:32:23;99838.13;;;11.61;100.00
4346;BME280;2186;49.866;7.986;2023-03-22T08:34:50;99837.44;;;11.79;100.00
4346;BME280;2186;49.866;7.986;2023-03-22T08:37:16;99831.97;;;11.82;100.00
4346;BME280;2186;49.866;7.986;2023-03-22T08:39:45;99825.75;;;12.03;100.00
4346;BME280;2186;49.866;7.986;2023-03-22T08:42:12;99830.03;;;12.07;100.00
4346;BME280;2186;49.866;7.986;2023-03-22T08:44:38;99821.91;;;12.31;100.00
4346;BME280;2186;49.866;7.986;2023-03-22T08:47:07;99825.59;;;12.49;100.00
4346;BME280;2186;49.866;7.986;2023-03-22T08:49:33;99826.72;;;12.63;100.00
4346;BME280;2186;49.866;7.986;2023-03-22T08:52:00;99818.00;;;12.79;99.90
4346;BME280;2186;49.866;7.986;2023-03-22T08:54:27;99808.34;;;12.76;99.62
4346;BME280;2186;49.866;7.986;2023-03-22T08:56:58;99815.66;;;12.91;98.36
4346;BME280;2186;49.866;7.986;2023-03-22T08:59:26;99808.22;;;12.98;98.60
4346;BME280;2186;49.866;7.986;2023-03-22T09:01:53;99811.50;;;13.23;98.30
4346;BME280;2186;49.866;7.986;2023-03-22T09:04:19;99800.13;;;13.20;97.94
4346;BME280;2186;49.866;7.986;2023-03-22T09:06:46;99805.59;;;13.36;97.94
4346;BME280;2186;49.866;7.986;2023-03-22T09:09:12;99803.63;;;13.39;97.40
4346;BME280;2186;49.866;7.986;2023-03-22T09:11:38;99805.81;;;13.50;98.35
4346;BME280;2186;49.866;7.986;2023-03-22T09:14:08;99802.13;;;13.52;97.15
4346;BME280;2186;49.866;7.986;2023-03-22T09:16:35;99809.44;;;13.66;97.08
4346;BME280;2186;49.866;7.986;2023-03-22T09:19:02;99802.16;;;13.70;95.17
4346;BME280;2186;49.866;7.986;2023-03-22T09:21:29;99797.75;;;13.69;94.70
4346;BME280;2186;49.866;7.986;2023-03-22T09:23:55;99797.97;;;13.64;94.56
4346;BME280;2186;49.866;7.986;2023-03-22T09:26:22;99794.56;;;13.97;93.66
4346;BME280;2186;49.866;7.986;2023-03-22T09:28:49;99785.31;;;14.04;93.65
4346;BME280;2186;49.866;7.986;2023-03-22T09:31:16;99787.50;;;13.96;92.35
4346;BME280;2186;49.866;7.986;2023-03-22T09:33:45;99788.47;;;14.12;92.29
4346;BME280;2186;49.866;7.986;2023-03-22T09:36:12;99788.13;;;14.18;91.57
4346;BME280;2186;49.866;7.986;2023-03-22T09:38:39;99786.97;;;14.41;91.24
4346;BME280;2186;49.866;7.986;2023-03-22T09:41:34;99780.66;;;14.59;90.52
4346;BME280;2186;49.866;7.986;2023-03-22T09:44:04;99768.88;;;14.46;88.95
4346;BME280;2186;49.866;7.986;2023-03-22T09:46:34;99780.88;;;14.72;88.90
4346;BME280;2186;49.866;7.986;2023-03-22T09:49:08;99765.59;;;14.74;88.23
4346;BME280;2186;49.866;7.986;2023-03-22T09:51:52;99772.75;;;14.73;88.12
4346;BME280;2186;49.866;7.986;2023-03-22T09:54:39;99768.47;;;14.87;86.11
4346;BME280;2186;49.866;7.986;2023-03-22T09:57:13;99760.19;;;14.91;87.13
4346;BME280;2186;49.866;7.986;2023-03-22T09:59:57;99757.75;;;14.87;85.41
4346;BME280;2186;49.866;7.986;2023-03-22T10:08:07;99762.97;;;15.21;83.45
4346;BME280;2186;49.866;7.986;2023-03-22T10:10:38;99761.84;;;15.41;82.87
4346;BME280;2186;49.866;7.986;2023-03-22T10:16:04;99763.03;;;15.83;80.43
4346;BME280;2186;49.866;7.986;2023-03-22T10:18:35;99761.91;;;15.87;79.94
4346;BME280;2186;49.866;7.986;2023-03-22T10:21:03;99760.94;;;15.88;78.85
4346;BME280;2186;49.866;7.986;2023-03-22T10:26:17;99762.75;;;15.87;78.01
4346;BME280;2186;49.866;7.986;2023-03-22T10:28:48;99759.41;;;15.84;77.96
4346;BME280;2186;49.866;7.986;2023-03-22T10:31:19;99765.44;;;15.87;76.56
4346;BME280;2186;49.866;7.986;2023-03-22T10:34:01;99761.75;;;15.90;76.65
4346;BME280;2186;49.866;7.986;2023-03-22T10:36:30;99759.13;;;15.88;77.33
4346;BME280;2186;49.866;7.986;2023-03-22T10:39:04;99775.25;;;15.73;76.49
4346;BME280;2186;49.866;7.986;2023-03-22T10:41:35;99764.13;;;15.64;75.92
4346;BME280;2186;49.866;7.986;2023-03-22T10:44:02;99762.13;;;15.68;74.75
4346;BME280;2186;49.866;7.986;2023-03-22T10:46:35;99762.00;;;15.85;73.70
4346;BME280;2186;49.866;7.986;2023-03-22T10:49:04;99768.63;;;15.94;74.32
4346;BME280;2186;49.866;7.986;2023-03-22T10:51:48;99770.69;;;16.05;73.71
4346;BME280;2186;49.866;7.986;2023-03-22T10:54:18;99770.72;;;16.19;72.63
4346;BME280;2186;49.866;7.986;2023-03-22T10:56:46;99766.63;;;16.27;72.48
4346;BME280;2186;49.866;7.986;2023-03-22T10:59:45;99770.69;;;16.49;73.73
4346;BME280;2186;49.866;7.986;2023-03-22T11:04:53;99759.34;;;16.44;71.25
4346;BME280;2186;49.866;7.986;2023-03-22T11:07:38;99761.28;;;16.56;70.85
4346;BME280;2186;49.866;7.986;2023-03-22T11:12:35;99746.75;;;17.03;69.32
4346;BME280;2186;49.866;7.986;2023-03-22T11:15:05;99743.97;;;17.04;70.15
4346;BME280;2186;49.866;7.986;2023-03-22T11:17:43;99754.66;;;17.33;68.60
4346;BME280;2186;49.866;7.986;2023-03-22T11:20:15;99751.34;;;17.15;68.68
4346;BME280;2186;49.866;7.986;2023-03-22T11:22:43;99746.41;;;17.22;66.59
4346;BME280;2186;49.866;7.986;2023-03-22T11:28:06;99735.19;;;17.29;66.62
4346;BME280;2186;49.866;7.986;2023-03-22T11:30:35;99731.50;;;17.44;66.54
4346;BME280;2186;49.866;7.986;2023-03-22T11:33:13;99738.06;;;17.53;66.21
4346;BME280;2186;49.866;7.986;2023-03-22T11:35:52;99733.22;;;17.45;66.79
4346;BME280;2186;49.866;7.986;2023-03-22T11:38:28;99732.47;;;17.43;65.18
4346;BME280;2186;49.866;7.986;2023-03-22T11:41:00;99731.56;;;17.57;64.96
4346;BME280;2186;49.866;7.986;2023-03-22T11:43:36;99723.28;;;17.60;63.28
4346;BME280;2186;49.866;7.986;2023-03-22T11:46:06;99718.88;;;17.59;63.80
4346;BME280;2186;49.866;7.986;2023-03-22T11:48:34;99718.66;;;17.62;63.83
4346;BME280;2186;49.866;7.986;2023-03-22T11:51:10;99709.44;;;17.39;63.00
4346;BME280;2186;49.866;7.986;2023-03-22T11:53:40;99710.44;;;17.51;63.07
4346;BME280;2186;49.866;7.986;2023-03-22T11:56:10;99717.16;;;17.31;62.50
4346;BME280;2186;49.866;7.986;2023-03-22T11:58:46;99711.56;;;17.34;63.02
4346;BME280;2186;49.866;7.986;2023-03-22T12:01:38;99710.91;;;17.58;63.57
4346;BME280;2186;49.866;7.986;2023-03-22T12:04:15;99716.25;;;17.45;64.34
4346;BME280;2186;49.866;7.986;2023-03-22T12:06:43;99717.16;;;17.58;63.94
4346;BME280;2186;49.866;7.986;2023-03-22T12:09:21;99707.38;;;17.57;63.11
4346;BME280;2186;49.866;7.986;2023-03-22T12:11:52;99712.84;;;17.56;63.15
4346;BME280;2186;49.866;7.986;2023-03-22T12:17:35;99696.69;;;17.70;61.66
4346;BME280;2186;49.866;7.986;2023-03-22T12:20:20;99703.00;;;17.42;62.24
4346;BME280;2186;49.866;7.986;2023-03-22T12:22:53;99697.03;;;17.64;61.22
4346;BME280;2186;49.866;7.986;2023-03-22T12:25:23;99688.50;;;17.71;62.13
4346;BME280;2186;49.866;7.986;2023-03-22T12:27:58;99695.88;;;18.08;61.38
4346;BME280;2186;49.866;7.986;2023-03-22T12:30:30;99688.09;;;17.77;60.59
4346;BME280;2186;49.866;7.986;2023-03-22T12:33:03;99679.81;;;17.93;59.79
4346;BME280;2186;49.866;7.986;2023-03-22T12:35:34;99676.84;;;17.98;60.71
4346;BME280;2186;49.866;7.986;2023-03-22T12:38:12;99685.56;;;18.01;59.43
4346;BME280;2186;49.866;7.986;2023-03-22T12:40:44;99682.72;;;17.90;58.89
4346;BME280;2186;49.866;7.986;2023-03-22T12:43:24;99680.69;;;17.94;60.42
4346;BME280;2186;49.866;7.986;2023-03-22T12:45:58;99677.13;;;17.93;59.48
4346;BME280;2186;49.866;7.986;2023-03-22T12:48:31;99668.22;;;17.93;58.06
4346;BME280;2186;49.866;7.986;2023-03-22T12:51:05;99675.66;;;18.15;57.54
4346;BME280;2186;49.866;7.986;2023-03-22T12:53:35;99667.16;;;18.21;57.81
4346;BME280;2186;49.866;7.986;2023-03-22T12:56:10;99667.56;;;17.89;57.57
4346;BME280;2186;49.866;7.986;2023-03-22T12:58:38;99661.75;;;17.95;59.31
4346;BME280;2186;49.866;7.986;2023-03-22T13:01:43;99647.88;;;17.89;58.86
4346;BME280;2186;49.866;7.986;2023-03-22T13:07:35;99643.19;;;17.65;60.56
4346;BME280;2186;49.866;7.986;2023-03-22T13:21:16;99641.44;;;17.91;59.67
4346;BME280;2186;49.866;7.986;2023-03-22T13:26:51;99636.16;;;18.02;60.23
4346;BME280;2186;49.866;7.986;2023-03-22T13:29:33;99625.84;;;17.84;59.60
4346;BME280;2186;49.866;7.986;2023-03-22T13:32:06;99622.38;;;18.07;59.64
4346;BME280;2186;49.866;7.986;2023-03-22T13:34:48;99614.44;;;17.93;59.78
4346;BME280;2186;49.866;7.986;2023-03-22T13:37:33;99614.97;;;17.85;59.91
4346;BME280;2186;49.866;7.986;2023-03-22T13:40:28;99621.94;;;17.75;59.17
4346;BME280;2186;49.866;7.986;2023-03-22T13:43:12;99611.44;;;17.97;58.48
4346;BME280;2186;49.866;7.986;2023-03-22T13:46:11;99609.69;;;18.09;59.39
4346;BME280;2186;49.866;7.986;2023-03-22T13:54:02;99613.34;;;18.21;58.31
4346;BME280;2186;49.866;7.986;2023-03-22T13:59:12;99608.06;;;17.94;57.03
4346;BME280;2186;49.866;7.986;2023-03-22T14:01:45;99600.44;;;17.75;57.46
4346;BME280;2186;49.866;7.986;2023-03-22T14:04:18;99596.38;;;17.82;56.72
4346;BME280;2186;49.866;7.986;2023-03-22T14:06:52;99595.41;;;17.70;57.09
4346;BME280;2186;49.866;7.986;2023-03-22T14:09:41;99605.00;;;17.60;57.59
4346;BME280;2186;49.866;7.986;2023-03-22T14:12:23;99593.06;;;17.64;57.61
4346;BME280;2186;49.866;7.986;2023-03-22T14:15:03;99593.28;;;17.48;57.19
4346;BME280;2186;49.866;7.986;2023-03-22T14:20:16;99586.81;;;17.51;57.86
4346;BME280;2186;49.866;7.986;2023-03-22T14:22:52;99581.56;;;17.50;58.17
4346;BME280;2186;49.866;7.986;2023-03-22T14:25:22;99587.69;;;17.52;58.91
4346;BME280;2186;49.866;7.986;2023-03-22T14:27:49;99592.09;;;17.65;59.18
4346;BME280;2186;49.866;7.986;2023-03-22T14:30:42;99587.22;;;17.72;59.23
4346;BME280;2186;49.866;7.986;2023-03-22T14:33:15;99575.72;;;17.83;59.32
4346;BME280;2186;49.866;7.986;2023-03-22T14:35:46;99583.75;;;17.95;59.14
4346;BME280;2186;49.866;7.986;2023-03-22T14:38:17;99580.31;;;17.81;59.20
4346;BME280;2186;49.866;7.986;2023-03-22T14:40:43;99570.34;;;17.83;60.06
4346;BME280;2186;49.866;7.986;2023-03-22T14:45:40;99572.53;;;17.63;59.67
4346;BME280;2186;49.866;7.986;2023-03-22T14:48:21;99570.53;;;17.80;57.67
4346;BME280;2186;49.866;7.986;2023-03-22T14:50:55;99567.81;;;17.67;57.87
4346;BME280;2186;49.866;7.986;2023-03-22T14:53:35;99565.66;;;17.59;56.68
4346;BME280;2186;49.866;7.986;2023-03-22T14:56:04;99556.78;;;17.71;57.30
4346;BME280;2186;49.866;7.986;2023-03-22T14:58:34;99563.94;;;17.58;57.39
4346;BME280;2186;49.866;7.986;2023-03-22T15:01:06;99554.06;;;17.59;58.83
4346;BME280;2186;49.866;7.986;2023-03-22T15:03:32;99554.91;;;17.59;58.51
4346;BME280;2186;49.866;7.986;2023-03-22T15:05:59;99557.38;;;17.50;58.96
4346;BME280;2186;49.866;7.986;2023-03-22T15:08:27;99561.41;;;17.69;59.33